createdAt,value
2018-02-14T00:01:41.885Z,12.13
2018-02-14T00:04:09.484Z,11.33
2018-02-14T00:06:37.864Z,8.17
2018-02-14T00:09:06.220Z,7.80
2018-02-14T00:11:33.880Z,7.00
2018-02-14T00:14:01.492Z,9.03
2018-02-14T00:16:29.089Z,6.97
2018-02-14T00:18:56.716Z,7.50
2018-02-14T00:21:24.309Z,9.30
2018-02-14T00:23:52.823Z,8.40
2018-02-14T00:26:21.188Z,7.47
2018-02-14T00:28:49.548Z,9.77
2018-02-14T00:31:17.189Z,6.37
2018-02-14T00:33:44.795Z,11.27
2018-02-14T00:36:13.192Z,9.50
2018-02-14T00:38:40.783Z,6.43
2018-02-14T00:41:08.390Z,8.43
2018-02-14T00:43:36.788Z,10.23
2018-02-14T00:46:05.145Z,12.63
2018-02-14T00:48:32.781Z,7.67
2018-02-14T00:51:00.388Z,6.60
2018-02-14T00:53:28.781Z,12.20
2018-02-14T00:55:56.405Z,13.20
2018-02-14T00:58:23.996Z,8.77
2018-02-14T01:00:51.616Z,6.90
2018-02-14T01:03:19.216Z,13.50
2018-02-14T01:05:46.824Z,12.43
2018-02-14T01:08:14.439Z,9.93
2018-02-14T01:10:42.036Z,13.97
2018-02-14T01:13:09.668Z,8.50
2018-02-14T01:15:37.275Z,12.00
2018-02-14T01:18:04.882Z,8.80
2018-02-14T01:20:35.482Z,10.50
2018-02-14T01:23:03.106Z,9.33
2018-02-14T01:25:30.700Z,8.20
2018-02-14T01:27:58.364Z,8.40
2018-02-14T01:30:25.976Z,8.53
2018-02-14T01:32:53.564Z,14.20
2018-02-14T01:35:21.203Z,10.07
2018-02-14T01:37:48.796Z,9.23
2018-02-14T01:40:16.426Z,11.40
2018-02-14T01:42:44.020Z,7.03
2018-02-14T01:45:13.176Z,9.83
2018-02-14T01:47:40.810Z,10.93
2018-02-14T01:50:09.163Z,11.27
2018-02-14T01:52:36.780Z,10.37
2018-02-14T01:55:04.363Z,10.47
2018-02-14T01:57:31.987Z,10.83
2018-02-14T01:59:59.584Z,11.90
2018-02-14T02:02:27.212Z,8.10
2018-02-14T02:04:54.806Z,9.60
2018-02-14T02:07:22.414Z,11.00
2018-02-14T02:09:50.076Z,9.07
2018-02-14T02:12:20.224Z,13.43
2018-02-14T02:14:47.836Z,7.90
2018-02-14T02:17:16.191Z,8.87
2018-02-14T02:19:43.841Z,8.97
2018-02-14T02:22:11.457Z,7.50
2018-02-14T02:24:39.085Z,8.43
2018-02-14T02:27:06.690Z,11.77
2018-02-14T02:29:34.339Z,18.30
2018-02-14T02:32:02.732Z,13.13
2018-02-14T02:34:30.346Z,16.87
2018-02-14T02:36:58.024Z,9.03
2018-02-14T02:39:38.440Z,14.47
2018-02-14T02:42:06.075Z,11.63
2018-02-14T02:44:33.700Z,14.47
2018-02-14T02:47:02.101Z,13.30
2018-02-14T02:49:30.458Z,8.13
2018-02-14T02:51:58.084Z,17.10
2018-02-14T02:54:25.745Z,13.57
2018-02-14T02:56:53.370Z,16.27
2018-02-14T02:59:21.729Z,8.47
2018-02-14T03:01:50.135Z,7.70
2018-02-14T03:04:17.735Z,12.43
2018-02-14T03:06:45.338Z,9.17
2018-02-14T03:09:13.723Z,13.60
2018-02-14T03:11:41.323Z,12.30
2018-02-14T03:14:08.940Z,7.63
2018-02-14T03:16:37.332Z,9.50
2018-02-14T03:19:04.951Z,13.70
2018-02-14T03:21:32.582Z,11.07
2018-02-14T03:24:00.173Z,12.50
2018-02-14T03:26:29.294Z,10.87
2018-02-14T03:28:57.689Z,4.83
2018-02-14T03:31:26.062Z,11.13
2018-02-14T03:33:53.669Z,9.77
2018-02-14T03:36:21.284Z,9.90
2018-02-14T03:38:48.877Z,8.50
2018-02-14T03:41:16.493Z,11.20
2018-02-14T03:43:44.919Z,8.60
2018-02-14T03:46:12.536Z,8.20
2018-02-14T03:48:40.892Z,10.00
2018-02-14T03:51:08.508Z,10.50
2018-02-14T03:53:36.115Z,17.73
2018-02-14T03:56:03.749Z,10.13
2018-02-14T03:58:31.344Z,10.23
2018-02-14T04:00:58.971Z,8.40
2018-02-14T04:03:26.637Z,8.77
2018-02-14T04:05:54.230Z,8.97
2018-02-14T04:08:22.620Z,9.70
2018-02-14T04:10:50.976Z,6.27
2018-02-14T04:13:20.098Z,7.80
2018-02-14T04:15:48.452Z,9.87
2018-02-14T04:18:16.828Z,12.00
2018-02-14T04:20:45.181Z,7.60
2018-02-14T04:23:12.809Z,11.37
2018-02-14T04:25:40.409Z,12.57
2018-02-14T04:28:09.942Z,9.40
2018-02-14T04:30:37.528Z,8.70
2018-02-14T04:33:05.169Z,14.27
2018-02-14T04:35:32.757Z,9.47
2018-02-14T04:38:00.371Z,6.77
2018-02-14T04:40:27.964Z,9.93
2018-02-14T04:42:56.356Z,11.83
2018-02-14T04:45:23.959Z,12.43
2018-02-14T04:47:51.572Z,8.50
2018-02-14T04:50:19.161Z,13.13
2018-02-14T04:52:46.817Z,7.10
2018-02-14T04:55:14.485Z,8.77
2018-02-14T04:57:42.113Z,10.10
2018-02-14T05:00:09.709Z,11.80
2018-02-14T05:02:37.337Z,9.20
2018-02-14T05:05:04.941Z,9.37
2018-02-14T05:07:32.544Z,10.80
2018-02-14T05:10:00.929Z,8.53
2018-02-14T05:12:29.297Z,7.00
2018-02-14T05:14:57.697Z,12.00
2018-02-14T05:17:25.392Z,9.30
2018-02-14T05:19:52.985Z,10.03
2018-02-14T05:22:22.119Z,9.50
2018-02-14T05:24:49.732Z,9.67
2018-02-14T05:27:17.358Z,8.77
2018-02-14T05:29:44.952Z,9.00
2018-02-14T05:32:12.585Z,13.30
2018-02-14T05:34:40.177Z,13.20
2018-02-14T05:37:07.798Z,7.67
2018-02-14T05:39:35.396Z,10.63
2018-02-14T05:42:03.017Z,11.77
2018-02-14T05:44:30.618Z,12.20
2018-02-14T05:46:58.258Z,12.97
2018-02-14T05:49:26.639Z,9.93
2018-02-14T05:51:54.260Z,11.83
2018-02-14T05:54:21.859Z,10.27
2018-02-14T05:56:49.488Z,17.03
2018-02-14T05:59:17.084Z,12.57
2018-02-14T06:01:44.677Z,11.37
2018-02-14T06:04:12.320Z,9.40
2018-02-14T06:06:39.908Z,8.87
2018-02-14T06:09:08.308Z,13.13
2018-02-14T06:11:35.921Z,12.23
2018-02-14T06:14:03.536Z,18.50
2018-02-14T06:16:31.143Z,10.80
2018-02-14T06:18:58.764Z,11.53
2018-02-14T06:21:26.453Z,10.40
2018-02-14T06:23:54.068Z,11.17
2018-02-14T06:26:21.688Z,15.17
2018-02-14T06:28:49.329Z,9.60
2018-02-14T06:31:16.956Z,12.60
2018-02-14T06:33:44.596Z,13.80
2018-02-14T06:36:12.968Z,14.07
2018-02-14T06:38:40.689Z,12.87
2018-02-14T06:41:08.276Z,10.77
2018-02-14T06:43:36.671Z,9.70
2018-02-14T06:46:04.261Z,12.07
2018-02-14T06:48:31.890Z,10.67
2018-02-14T06:50:59.476Z,10.10
2018-02-14T06:53:27.092Z,14.13
2018-02-14T06:55:54.691Z,11.80
2018-02-14T06:58:23.107Z,10.13
2018-02-14T07:00:50.696Z,11.97
2018-02-14T07:03:18.308Z,9.33
2018-02-14T07:05:45.999Z,19.60
2018-02-14T07:08:13.623Z,14.60
2018-02-14T07:10:41.221Z,16.80
2018-02-14T07:13:08.868Z,13.90
2018-02-14T07:15:36.474Z,10.40
2018-02-14T07:18:04.874Z,15.93
2018-02-14T07:20:32.504Z,12.77
2018-02-14T07:23:00.101Z,12.97
2018-02-14T07:25:28.482Z,15.03
2018-02-14T07:27:56.872Z,11.67
2018-02-14T07:30:24.486Z,9.37
2018-02-14T07:32:53.607Z,8.83
2018-02-14T07:35:21.989Z,11.00
2018-02-14T07:37:50.380Z,16.93
2018-02-14T07:40:18.027Z,15.03
2018-02-14T07:42:46.412Z,9.20
2018-02-14T07:45:14.113Z,17.73
2018-02-14T07:47:41.738Z,12.40
2018-02-14T07:50:09.325Z,13.40
2018-02-14T07:52:36.957Z,12.63
2018-02-14T07:55:05.323Z,12.83
2018-02-14T07:57:33.743Z,11.60
2018-02-14T08:00:01.376Z,18.43
2018-02-14T08:02:29.752Z,15.73
2018-02-14T08:04:58.142Z,16.30
2018-02-14T08:07:25.748Z,19.83
2018-02-14T08:09:53.457Z,16.40
2018-02-14T08:12:21.838Z,18.57
2018-02-14T08:14:50.224Z,10.00
2018-02-14T08:17:17.829Z,12.13
2018-02-14T08:19:45.453Z,17.43
2018-02-14T08:22:13.137Z,25.53
2018-02-14T08:24:40.779Z,16.70
2018-02-14T08:27:08.380Z,20.93
2018-02-14T08:29:35.996Z,11.97
2018-02-14T08:32:03.682Z,13.00
2018-02-14T08:34:31.463Z,12.83
2018-02-14T08:36:59.112Z,16.77
2018-02-14T08:39:26.973Z,15.70
2018-02-14T08:41:54.574Z,14.83
2018-02-14T08:44:22.965Z,19.23
2018-02-14T08:46:51.320Z,16.80
2018-02-14T08:49:18.964Z,16.87
2018-02-14T08:51:46.562Z,14.00
2018-02-14T08:54:14.956Z,13.87
2018-02-14T08:56:43.316Z,21.60
2018-02-14T08:59:11.720Z,13.57
2018-02-14T09:01:39.313Z,16.60
2018-02-14T09:04:06.942Z,22.30
2018-02-14T09:06:34.537Z,17.73
2018-02-14T09:09:02.165Z,16.73
2018-02-14T09:11:29.776Z,18.20
2018-02-14T09:13:57.376Z,12.17
2018-02-14T09:16:25.010Z,16.13
2018-02-14T09:18:52.597Z,16.20
2018-02-14T09:21:20.978Z,11.87
2018-02-14T09:23:49.379Z,14.03
2018-02-14T09:26:16.984Z,17.53
2018-02-14T09:28:44.583Z,15.77
2018-02-14T09:31:12.224Z,17.03
2018-02-14T09:33:40.593Z,17.90
2018-02-14T09:36:08.216Z,12.47
2018-02-14T09:38:35.842Z,15.10
2018-02-14T09:41:04.232Z,28.97
2018-02-14T09:43:31.904Z,15.10
2018-02-14T09:45:59.630Z,14.37
2018-02-14T09:48:28.023Z,15.27
2018-02-14T09:50:55.636Z,9.00
2018-02-14T09:53:23.259Z,11.90
2018-02-14T09:55:50.856Z,8.57
2018-02-14T09:58:18.468Z,13.80
2018-02-14T10:00:46.102Z,14.80
2018-02-14T10:03:13.700Z,10.00
2018-02-14T10:05:41.435Z,14.20
2018-02-14T10:08:09.796Z,11.40
2018-02-14T10:10:37.440Z,12.90
2018-02-14T10:13:05.039Z,10.27
2018-02-14T10:15:35.283Z,18.43
2018-02-14T10:18:03.741Z,14.50
2018-02-14T10:20:32.147Z,12.40
2018-02-14T10:22:59.738Z,14.50
2018-02-14T10:25:27.497Z,10.70
2018-02-14T10:27:55.095Z,11.87
2018-02-14T10:30:22.716Z,12.63
2018-02-14T10:32:50.313Z,11.17
2018-02-14T10:35:17.934Z,10.07
2018-02-14T10:37:47.070Z,12.67
2018-02-14T10:40:14.696Z,11.10
2018-02-14T10:42:42.302Z,13.53
2018-02-14T10:45:10.688Z,10.40
2018-02-14T10:47:39.127Z,8.83
2018-02-14T10:50:06.751Z,11.93
2018-02-14T10:52:34.568Z,15.30
2018-02-14T10:55:02.197Z,11.27
2018-02-14T10:57:29.791Z,12.73
2018-02-14T10:59:57.420Z,13.70
2018-02-14T11:02:25.012Z,16.03
2018-02-14T11:05:00.070Z,11.53
2018-02-14T11:07:28.524Z,18.20
2018-02-14T11:09:57.661Z,15.77
2018-02-14T11:12:25.252Z,13.10
2018-02-14T11:14:52.870Z,15.87
2018-02-14T11:17:21.301Z,8.33
2018-02-14T11:19:48.929Z,12.87
2018-02-14T11:22:16.632Z,17.00
2018-02-14T11:24:44.260Z,20.97
2018-02-14T11:27:12.047Z,18.93
2018-02-14T11:29:39.712Z,14.23
2018-02-14T11:32:07.304Z,17.97
2018-02-14T11:34:34.942Z,12.03
2018-02-14T11:37:02.537Z,16.57
2018-02-14T11:39:30.900Z,12.30
2018-02-14T11:41:58.526Z,11.77
2018-02-14T11:44:26.128Z,19.77
2018-02-14T11:46:53.765Z,14.67
2018-02-14T11:49:21.457Z,18.80
2018-02-14T11:51:49.090Z,11.03
2018-02-14T11:54:16.717Z,13.20
2018-02-14T11:56:44.337Z,13.60
2018-02-14T11:59:11.953Z,13.80
2018-02-14T12:01:39.586Z,12.00
2018-02-14T12:04:07.194Z,14.17
2018-02-14T12:06:34.865Z,14.33
2018-02-14T12:09:02.469Z,11.90
2018-02-14T12:11:30.096Z,9.97
2018-02-14T12:13:57.693Z,8.53
2018-02-14T12:16:25.323Z,16.97
2018-02-14T12:18:52.921Z,10.43
2018-02-14T12:21:20.521Z,14.83
2018-02-14T12:23:48.144Z,10.93
2018-02-14T12:26:15.800Z,14.60
2018-02-14T12:28:43.426Z,12.00
2018-02-14T12:31:11.791Z,13.93
2018-02-14T12:33:40.919Z,13.00
2018-02-14T12:36:09.327Z,16.23
2018-02-14T12:38:36.943Z,12.73
2018-02-14T12:41:04.539Z,16.50
2018-02-14T12:43:32.219Z,18.97
2018-02-14T12:45:59.812Z,20.50
2018-02-14T12:48:27.436Z,14.57
2018-02-14T12:50:55.025Z,12.50
2018-02-14T12:53:22.647Z,15.20
2018-02-14T12:55:50.247Z,12.17
2018-02-14T12:58:17.863Z,18.97
2018-02-14T13:00:45.480Z,18.13
2018-02-14T13:03:13.120Z,11.37
2018-02-14T13:05:40.739Z,15.13
2018-02-14T13:08:08.345Z,13.87
2018-02-14T13:10:36.244Z,14.70
2018-02-14T13:13:04.618Z,12.00
2018-02-14T13:15:32.275Z,18.40
2018-02-14T13:17:59.914Z,14.80
2018-02-14T13:20:27.536Z,10.30
2018-02-14T13:22:55.128Z,16.53
2018-02-14T13:25:22.744Z,14.17
2018-02-14T13:27:51.125Z,10.83
2018-02-14T13:30:19.517Z,13.73
2018-02-14T13:32:47.112Z,8.17
2018-02-14T13:35:14.732Z,15.47
2018-02-14T13:37:42.323Z,15.10
2018-02-14T13:40:09.965Z,12.30
2018-02-14T13:42:37.562Z,16.77
2018-02-14T13:45:05.165Z,14.63
2018-02-14T13:47:33.561Z,12.67
2018-02-14T13:50:01.162Z,8.77
2018-02-14T13:52:28.800Z,19.67
2018-02-14T13:54:56.399Z,11.70
2018-02-14T13:57:24.024Z,12.70
2018-02-14T13:59:51.645Z,14.80
2018-02-14T14:02:19.277Z,13.67
2018-02-14T14:04:46.955Z,18.23
2018-02-14T14:07:15.364Z,19.63
2018-02-14T14:09:42.955Z,14.73
2018-02-14T14:12:10.629Z,16.00
2018-02-14T14:14:38.221Z,13.63
2018-02-14T14:17:06.620Z,7.83
2018-02-14T14:19:34.209Z,10.37
2018-02-14T14:22:01.996Z,7.03
2018-02-14T14:24:29.600Z,17.03
2018-02-14T14:26:58.015Z,25.33
2018-02-14T14:29:25.612Z,14.80
2018-02-14T14:31:53.374Z,12.80
2018-02-14T14:34:20.964Z,6.17
2018-02-14T14:36:49.344Z,8.50
2018-02-14T14:39:16.942Z,14.80
2018-02-14T14:41:44.568Z,12.83
2018-02-14T14:44:12.173Z,11.03
2018-02-14T14:46:39.795Z,10.97
2018-02-14T14:49:07.400Z,11.30
2018-02-14T14:51:35.268Z,14.60
2018-02-14T14:54:02.868Z,10.73
2018-02-14T14:56:31.252Z,9.40
2018-02-14T14:58:59.612Z,14.03
2018-02-14T15:01:27.337Z,15.70
2018-02-14T15:03:55.016Z,14.93
2018-02-14T15:06:22.747Z,15.57
2018-02-14T15:08:50.462Z,20.27
2018-02-14T15:11:18.876Z,17.37
2018-02-14T15:13:46.554Z,14.07
2018-02-14T15:16:14.272Z,17.70
2018-02-14T15:18:41.931Z,15.97
2018-02-14T15:21:09.759Z,18.87
2018-02-14T15:23:37.531Z,16.87
2018-02-14T15:26:05.247Z,17.00
2018-02-14T15:28:33.707Z,16.40
2018-02-14T15:31:01.428Z,16.37
2018-02-14T15:33:29.017Z,15.10
2018-02-14T15:35:56.691Z,15.87
2018-02-14T15:38:24.340Z,18.20
2018-02-14T15:40:52.081Z,15.13
2018-02-14T15:43:19.857Z,16.63
2018-02-14T15:45:47.488Z,13.23
2018-02-14T15:48:15.085Z,20.10
2018-02-14T15:50:42.732Z,16.30
2018-02-14T15:53:10.401Z,12.67
2018-02-14T15:55:38.169Z,17.40
2018-02-14T15:58:05.848Z,14.13
2018-02-14T16:00:33.589Z,14.73
2018-02-14T16:03:01.351Z,19.60
2018-02-14T16:05:29.126Z,14.67
2018-02-14T16:07:56.874Z,17.77
2018-02-14T16:10:24.569Z,15.67
2018-02-14T16:12:52.414Z,14.53
2018-02-14T16:15:20.058Z,12.37
2018-02-14T16:17:47.678Z,19.80
2018-02-14T16:20:16.075Z,17.30
2018-02-14T16:22:43.673Z,15.07
2018-02-14T16:25:11.292Z,16.07
2018-02-14T16:27:38.894Z,21.23
2018-02-14T16:30:06.534Z,18.70
2018-02-14T16:32:34.149Z,16.17
2018-02-14T16:35:02.516Z,13.73
2018-02-14T16:37:30.252Z,18.83
2018-02-14T16:39:57.860Z,13.80
2018-02-14T16:42:26.252Z,13.27
2018-02-14T16:44:53.885Z,18.33
2018-02-14T16:47:22.306Z,16.80
2018-02-14T16:49:49.897Z,19.20
2018-02-14T16:52:17.512Z,13.60
2018-02-14T16:54:45.107Z,12.80
2018-02-14T16:57:12.738Z,12.80
2018-02-14T16:59:40.397Z,20.03
2018-02-14T17:02:08.095Z,16.90
2018-02-14T17:04:35.781Z,14.87
2018-02-14T17:07:03.517Z,19.30
2018-02-14T17:09:31.186Z,14.73
2018-02-14T17:11:58.889Z,16.13
2018-02-14T17:14:27.322Z,15.50
2018-02-14T17:16:55.202Z,17.80
2018-02-14T17:19:22.844Z,17.57
2018-02-14T17:21:51.034Z,17.37
2018-02-14T17:24:18.727Z,16.10
2018-02-14T17:26:46.425Z,17.83
2018-02-14T17:29:14.024Z,19.33
2018-02-14T17:31:41.877Z,23.30
2018-02-14T17:34:09.660Z,22.90
2018-02-14T17:36:37.309Z,22.47
2018-02-14T17:39:05.102Z,22.60
2018-02-14T17:41:32.839Z,23.40
2018-02-14T17:44:00.602Z,25.10
2018-02-14T17:46:28.380Z,22.30
2018-02-14T17:48:56.020Z,21.10
2018-02-14T17:51:23.787Z,22.20
2018-02-14T17:53:51.494Z,18.13
2018-02-14T17:56:20.047Z,16.43
2018-02-14T17:58:47.817Z,20.03
2018-02-14T18:01:15.586Z,15.47
2018-02-14T18:03:44.146Z,17.43
2018-02-14T18:06:11.834Z,23.23
2018-02-14T18:08:40.392Z,22.73
2018-02-14T18:11:08.100Z,21.40
2018-02-14T18:13:36.656Z,23.93
2018-02-14T18:16:05.132Z,14.83
2018-02-14T18:18:33.000Z,17.27
2018-02-14T18:21:00.864Z,17.13
2018-02-14T18:23:28.734Z,22.03
2018-02-14T18:25:56.904Z,23.27
2018-02-14T18:28:24.773Z,21.40
2018-02-14T18:30:52.945Z,16.67
2018-02-14T18:33:20.823Z,15.80
2018-02-14T18:35:48.587Z,23.80
2018-02-14T18:38:16.449Z,19.90
2018-02-14T18:40:45.137Z,16.13
2018-02-14T18:43:12.998Z,20.40
2018-02-14T18:45:40.869Z,22.90
2018-02-14T18:48:08.729Z,19.07
2018-02-14T18:50:36.601Z,14.40
2018-02-14T18:53:04.480Z,21.80
2018-02-14T18:55:32.328Z,20.40
2018-02-14T18:58:00.254Z,17.87
2018-02-14T19:00:28.882Z,17.87
2018-02-14T19:02:56.750Z,16.90
2018-02-14T19:05:24.622Z,30.57
2018-02-14T19:07:53.302Z,14.67
2018-02-14T19:10:21.174Z,15.50
2018-02-14T19:12:49.044Z,18.30
2018-02-14T19:15:16.778Z,19.37
2018-02-14T19:17:44.675Z,25.30
2018-02-14T19:20:12.519Z,20.93
2018-02-14T19:22:40.398Z,21.93
2018-02-14T19:25:08.266Z,23.10
2018-02-14T19:27:36.133Z,18.37
2018-02-14T19:30:04.002Z,17.37
2018-02-14T19:32:31.862Z,18.73
2018-02-14T19:34:59.735Z,24.27
2018-02-14T19:37:27.473Z,17.10
2018-02-14T19:39:55.203Z,15.23
2018-02-14T19:42:23.743Z,16.30
2018-02-14T19:44:51.611Z,27.93
2018-02-14T19:47:19.479Z,26.03
2018-02-14T19:49:47.247Z,18.57
2018-02-14T19:52:15.099Z,21.80
2018-02-14T19:54:42.973Z,18.73
2018-02-14T19:57:10.847Z,20.07
2018-02-14T19:59:38.705Z,16.30
2018-02-14T20:02:06.574Z,20.60
2018-02-14T20:04:34.450Z,36.67
2018-02-14T20:07:03.125Z,18.90
2018-02-14T20:09:30.998Z,30.00
2018-02-14T20:11:58.865Z,31.47
2018-02-14T20:14:26.628Z,22.57
2018-02-14T20:16:54.495Z,19.83
2018-02-14T20:19:22.364Z,20.40
2018-02-14T20:21:51.656Z,29.47
2018-02-14T20:24:19.316Z,17.13
2018-02-14T20:26:47.078Z,24.30
2018-02-14T20:29:14.962Z,20.67
2018-02-14T20:31:42.815Z,19.60
2018-02-14T20:34:10.633Z,21.17
2018-02-14T20:36:38.394Z,22.97
2018-02-14T20:39:07.031Z,22.53
2018-02-14T20:41:34.793Z,22.50
2018-02-14T20:44:02.610Z,26.73
2018-02-14T20:46:31.147Z,23.50
2018-02-14T20:48:59.016Z,29.33
2018-02-14T20:51:26.875Z,21.80
2018-02-14T20:53:54.746Z,20.37
2018-02-14T20:56:22.617Z,26.30
2018-02-14T20:58:50.477Z,20.87
2018-02-14T21:01:18.243Z,24.53
2018-02-14T21:03:46.146Z,24.27
2018-02-14T21:06:14.696Z,20.40
2018-02-14T21:08:42.455Z,17.80
2018-02-14T21:11:10.276Z,23.67
2018-02-14T21:13:38.085Z,21.77
2018-02-14T21:16:05.849Z,20.13
2018-02-14T21:18:33.719Z,17.37
2018-02-14T21:21:01.485Z,28.33
2018-02-14T21:23:29.353Z,23.90
2018-02-14T21:25:57.217Z,22.93
2018-02-14T21:28:25.085Z,20.43
2018-02-14T21:30:52.955Z,21.10
2018-02-14T21:33:20.818Z,25.73
2018-02-14T21:35:50.123Z,16.83
2018-02-14T21:38:17.987Z,26.90
2018-02-14T21:43:20.679Z,18.10
2018-02-14T21:45:48.288Z,19.47
2018-02-14T21:48:16.669Z,22.60
2018-02-14T21:50:45.125Z,25.37
2018-02-14T21:53:12.750Z,11.77
2018-02-14T21:55:40.723Z,23.93
2018-02-14T21:58:08.574Z,17.20
2018-02-14T22:00:36.285Z,23.77
2018-02-14T22:03:04.018Z,19.50
2018-02-14T22:05:31.723Z,27.57
2018-02-14T22:08:00.170Z,15.73
2018-02-14T22:10:28.018Z,18.80
2018-02-14T22:12:58.617Z,21.63
2018-02-14T22:15:26.448Z,21.47
2018-02-14T22:17:54.093Z,17.50
2018-02-14T22:20:22.081Z,19.33
2018-02-14T22:22:51.186Z,19.70
2018-02-14T22:25:19.579Z,18.27
2018-02-14T22:27:50.563Z,26.60
2018-02-14T22:30:18.203Z,11.00
2018-02-14T22:32:45.797Z,24.37
2018-02-14T22:35:23.415Z,25.47
2018-02-14T22:37:51.005Z,25.23
2018-02-14T22:40:18.729Z,24.63
2018-02-14T22:42:46.360Z,16.20
2018-02-14T22:45:13.956Z,20.97
2018-02-14T22:47:41.806Z,23.00
2018-02-14T22:50:09.405Z,32.23
2018-02-14T22:52:37.796Z,21.87
2018-02-14T22:55:05.416Z,19.60
2018-02-14T22:57:33.053Z,22.70
2018-02-14T23:00:00.674Z,29.77
2018-02-14T23:02:28.272Z,14.13
2018-02-14T23:04:55.896Z,25.03
2018-02-14T23:07:23.496Z,26.13
2018-02-14T23:09:51.128Z,24.77
2018-02-14T23:12:18.720Z,24.77
2018-02-14T23:14:46.349Z,16.50
2018-02-14T23:17:13.937Z,14.80
2018-02-14T23:19:41.538Z,10.70
2018-02-14T23:22:09.160Z,10.80
2018-02-14T23:24:36.757Z,16.43
2018-02-14T23:27:05.151Z,16.27
2018-02-14T23:29:33.524Z,15.93
2018-02-14T23:32:01.956Z,18.50
2018-02-14T23:34:29.544Z,14.40
2018-02-14T23:36:57.137Z,11.73
2018-02-14T23:39:25.532Z,16.63
2018-02-14T23:41:53.902Z,18.27
2018-02-14T23:44:21.528Z,18.53
2018-02-14T23:46:50.632Z,21.47
2018-02-14T23:49:18.577Z,20.83
2018-02-14T23:51:46.179Z,15.00
2018-02-14T23:54:14.568Z,20.00
2018-02-14T23:56:42.209Z,19.63
2018-02-14T23:59:10.572Z,17.63
